sensor_id;sensor_type;location;lat;lon;timestamp;P1;durP1;ratioP1;P2;durP2;ratioP2
73682;SDS011;72538;48.146;11.740;2023-11-19T00:02:10;1.30;;;1.20;;
73682;SDS011;72538;48.146;11.740;2023-11-19T00:04:36;1.13;;;1.03;;
73682;SDS011;72538;48.146;11.740;2023-11-19T00:07:04;1.33;;;1.07;;
73682;SDS011;72538;48.146;11.740;2023-11-19T00:09:32;2.87;;;1.50;;
73682;SDS011;72538;48.146;11.740;2023-11-19T00:11:59;1.27;;;1.17;;
73682;SDS011;72538;48.146;11.740;2023-11-19T00:14:26;1.97;;;1.20;;
73682;SDS011;72538;48.146;11.740;2023-11-19T00:16:52;2.30;;;1.30;;
73682;SDS011;72538;48.146;11.740;2023-11-19T00:19:19;1.70;;;1.60;;
73682;SDS011;72538;48.146;11.740;2023-11-19T00:21:44;1.53;;;1.43;;
73682;SDS011;72538;48.146;11.740;2023-11-19T00:24:11;2.93;;;1.53;;
73682;SDS011;72538;48.146;11.740;2023-11-19T00:26:42;2.40;;;1.93;;
73682;SDS011;72538;48.146;11.740;2023-11-19T00:29:05;1.73;;;1.63;;
73682;SDS011;72538;48.146;11.740;2023-11-19T00:31:32;1.60;;;1.50;;
73682;SDS011;72538;48.146;11.740;2023-11-19T00:33:57;1.83;;;1.50;;
73682;SDS011;72538;48.146;11.740;2023-11-19T00:36:23;1.80;;;1.70;;
73682;SDS011;72538;48.146;11.740;2023-11-19T00:38:49;2.03;;;1.83;;
73682;SDS011;72538;48.146;11.740;2023-11-19T00:41:15;2.27;;;1.90;;
73682;SDS011;72538;48.146;11.740;2023-11-19T00:43:43;3.27;;;1.50;;
73682;SDS011;72538;48.146;11.740;2023-11-19T00:46:08;1.90;;;1.80;;
73682;SDS011;72538;48.146;11.740;2023-11-19T00:48:36;1.77;;;1.67;;
73682;SDS011;72538;48.146;11.740;2023-11-19T00:51:02;3.70;;;1.47;;
73682;SDS011;72538;48.146;11.740;2023-11-19T00:53:29;2.07;;;1.80;;
73682;SDS011;72538;48.146;11.740;2023-11-19T00:55:57;1.83;;;1.60;;
73682;SDS011;72538;48.146;11.740;2023-11-19T00:58:23;1.70;;;1.60;;
73682;SDS011;72538;48.146;11.740;2023-11-19T01:00:49;1.83;;;1.53;;
73682;SDS011;72538;48.146;11.740;2023-11-19T01:03:15;1.60;;;1.50;;
73682;SDS011;72538;48.146;11.740;2023-11-19T01:05:41;2.20;;;1.83;;
73682;SDS011;72538;48.146;11.740;2023-11-19T01:08:07;2.20;;;1.50;;
73682;SDS011;72538;48.146;11.740;2023-11-19T01:10:36;1.47;;;1.37;;
73682;SDS011;72538;48.146;11.740;2023-11-19T01:13:02;1.60;;;1.40;;
73682;SDS011;72538;48.146;11.740;2023-11-19T01:15:30;2.90;;;1.70;;
73682;SDS011;72538;48.146;11.740;2023-11-19T01:17:56;1.87;;;1.60;;
73682;SDS011;72538;48.146;11.740;2023-11-19T01:20:21;1.57;;;1.47;;
73682;SDS011;72538;48.146;11.740;2023-11-19T01:22:47;2.47;;;1.80;;
73682;SDS011;72538;48.146;11.740;2023-11-19T01:25:14;1.43;;;1.33;;
73682;SDS011;72538;48.146;11.740;2023-11-19T01:27:40;1.40;;;1.30;;
73682;SDS011;72538;48.146;11.740;2023-11-19T01:30:06;1.40;;;1.30;;
73682;SDS011;72538;48.146;11.740;2023-11-19T01:32:34;2.03;;;1.13;;
73682;SDS011;72538;48.146;11.740;2023-11-19T01:35:02;2.20;;;1.23;;
73682;SDS011;72538;48.146;11.740;2023-11-19T01:37:29;1.30;;;1.20;;
73682;SDS011;72538;48.146;11.740;2023-11-19T01:39:56;1.10;;;1.00;;
73682;SDS011;72538;48.146;11.740;2023-11-19T01:42:23;2.00;;;1.37;;
73682;SDS011;72538;48.146;11.740;2023-11-19T01:45:00;1.30;;;1.20;;
73682;SDS011;72538;48.146;11.740;2023-11-19T01:47:26;1.40;;;1.10;;
73682;SDS011;72538;48.146;11.740;2023-11-19T01:49:53;1.63;;;1.53;;
73682;SDS011;72538;48.146;11.740;2023-11-19T01:52:21;1.33;;;1.23;;
73682;SDS011;72538;48.146;11.740;2023-11-19T01:54:47;2.33;;;1.40;;
73682;SDS011;72538;48.146;11.740;2023-11-19T01:57:14;1.30;;;1.20;;
73682;SDS011;72538;48.146;11.740;2023-11-19T01:59:40;1.40;;;1.30;;
73682;SDS011;72538;48.146;11.740;2023-11-19T02:02:07;1.33;;;1.23;;
73682;SDS011;72538;48.146;11.740;2023-11-19T02:04:33;1.93;;;1.40;;
73682;SDS011;72538;48.146;11.740;2023-11-19T02:07:00;1.47;;;1.23;;
73682;SDS011;72538;48.146;11.740;2023-11-19T02:09:26;1.57;;;1.47;;
73682;SDS011;72538;48.146;11.740;2023-11-19T02:11:53;1.80;;;1.40;;
73682;SDS011;72538;48.146;11.740;2023-11-19T02:14:22;2.93;;;1.27;;
73682;SDS011;72538;48.146;11.740;2023-11-19T02:16:50;1.17;;;1.07;;
73682;SDS011;72538;48.146;11.740;2023-11-19T02:19:15;1.77;;;1.30;;
73682;SDS011;72538;48.146;11.740;2023-11-19T02:21:43;1.57;;;1.37;;
73682;SDS011;72538;48.146;11.740;2023-11-19T02:24:09;1.60;;;1.50;;
73682;SDS011;72538;48.146;11.740;2023-11-19T02:26:58;1.50;;;1.40;;
73682;SDS011;72538;48.146;11.740;2023-11-19T02:29:25;2.37;;;1.27;;
73682;SDS011;72538;48.146;11.740;2023-11-19T02:31:51;1.43;;;1.23;;
73682;SDS011;72538;48.146;11.740;2023-11-19T02:34:17;1.30;;;1.20;;
73682;SDS011;72538;48.146;11.740;2023-11-19T02:36:42;1.30;;;1.20;;
73682;SDS011;72538;48.146;11.740;2023-11-19T02:39:08;1.60;;;1.50;;
73682;SDS011;72538;48.146;11.740;2023-11-19T02:41:36;1.60;;;1.50;;
73682;SDS011;72538;48.146;11.740;2023-11-19T02:44:02;1.43;;;1.30;;
73682;SDS011;72538;48.146;11.740;2023-11-19T02:46:28;1.70;;;1.20;;
73682;SDS011;72538;48.146;11.740;2023-11-19T02:48:54;1.67;;;1.57;;
73682;SDS011;72538;48.146;11.740;2023-11-19T02:51:20;0.93;;;0.93;;
73682;SDS011;72538;48.146;11.740;2023-11-19T02:53:45;1.40;;;1.30;;
73682;SDS011;72538;48.146;11.740;2023-11-19T02:56:13;1.20;;;1.20;;
73682;SDS011;72538;48.146;11.740;2023-11-19T02:58:47;1.80;;;1.37;;
73682;SDS011;72538;48.146;11.740;2023-11-19T03:01:14;1.50;;;1.20;;
73682;SDS011;72538;48.146;11.740;2023-11-19T03:03:51;1.47;;;1.37;;
73682;SDS011;72538;48.146;11.740;2023-11-19T03:06:18;1.30;;;1.20;;
73682;SDS011;72538;48.146;11.740;2023-11-19T03:08:44;1.43;;;1.33;;
73682;SDS011;72538;48.146;11.740;2023-11-19T03:11:10;2.17;;;1.23;;
73682;SDS011;72538;48.146;11.740;2023-11-19T03:13:35;1.40;;;1.30;;
73682;SDS011;72538;48.146;11.740;2023-11-19T03:16:01;1.40;;;1.30;;
73682;SDS011;72538;48.146;11.740;2023-11-19T03:18:27;1.67;;;1.33;;
73682;SDS011;72538;48.146;11.740;2023-11-19T03:20:53;1.43;;;1.33;;
73682;SDS011;72538;48.146;11.740;2023-11-19T03:23:19;1.47;;;1.37;;
73682;SDS011;72538;48.146;11.740;2023-11-19T03:25:45;1.70;;;1.60;;
73682;SDS011;72538;48.146;11.740;2023-11-19T03:28:11;1.70;;;1.60;;
73682;SDS011;72538;48.146;11.740;2023-11-19T03:30:36;1.77;;;1.60;;
73682;SDS011;72538;48.146;11.740;2023-11-19T03:33:03;2.47;;;1.70;;
73682;SDS011;72538;48.146;11.740;2023-11-19T03:35:29;1.73;;;1.53;;
73682;SDS011;72538;48.146;11.740;2023-11-19T03:37:55;1.40;;;1.30;;
73682;SDS011;72538;48.146;11.740;2023-11-19T03:40:21;2.10;;;1.43;;
73682;SDS011;72538;48.146;11.740;2023-11-19T03:42:47;1.77;;;1.50;;
73682;SDS011;72538;48.146;11.740;2023-11-19T03:45:13;1.53;;;1.43;;
73682;SDS011;72538;48.146;11.740;2023-11-19T03:47:41;1.73;;;1.63;;
73682;SDS011;72538;48.146;11.740;2023-11-19T03:50:07;2.00;;;1.50;;
73682;SDS011;72538;48.146;11.740;2023-11-19T03:52:36;1.83;;;1.73;;
73682;SDS011;72538;48.146;11.740;2023-11-19T03:55:02;1.27;;;1.17;;
73682;SDS011;72538;48.146;11.740;2023-11-19T03:57:30;1.30;;;1.20;;
73682;SDS011;72538;48.146;11.740;2023-11-19T03:59:56;2.00;;;1.50;;
73682;SDS011;72538;48.146;11.740;2023-11-19T04:02:23;1.40;;;1.30;;
73682;SDS011;72538;48.146;11.740;2023-11-19T04:04:51;1.50;;;1.40;;
73682;SDS011;72538;48.146;11.740;2023-11-19T04:07:17;1.43;;;1.30;;
73682;SDS011;72538;48.146;11.740;2023-11-19T04:09:44;1.30;;;1.20;;
73682;SDS011;72538;48.146;11.740;2023-11-19T04:12:12;1.60;;;1.50;;
73682;SDS011;72538;48.146;11.740;2023-11-19T04:14:37;1.40;;;1.30;;
73682;SDS011;72538;48.146;11.740;2023-11-19T04:17:03;2.87;;;1.40;;
73682;SDS011;72538;48.146;11.740;2023-11-19T04:19:29;1.17;;;1.07;;
73682;SDS011;72538;48.146;11.740;2023-11-19T04:21:55;1.33;;;1.23;;
73682;SDS011;72538;48.146;11.740;2023-11-19T04:24:20;1.30;;;1.20;;
73682;SDS011;72538;48.146;11.740;2023-11-19T04:26:46;1.77;;;1.30;;
73682;SDS011;72538;48.146;11.740;2023-11-19T04:29:13;1.90;;;1.40;;
73682;SDS011;72538;48.146;11.740;2023-11-19T04:31:40;1.40;;;1.30;;
73682;SDS011;72538;48.146;11.740;2023-11-19T04:34:07;1.57;;;1.47;;
73682;SDS011;72538;48.146;11.740;2023-11-19T04:36:33;1.67;;;1.23;;
73682;SDS011;72538;48.146;11.740;2023-11-19T04:39:00;1.43;;;1.33;;
73682;SDS011;72538;48.146;11.740;2023-11-19T04:41:26;1.53;;;1.43;;
73682;SDS011;72538;48.146;11.740;2023-11-19T04:43:53;1.37;;;1.23;;
73682;SDS011;72538;48.146;11.740;2023-11-19T04:46:19;2.07;;;1.67;;
73682;SDS011;72538;48.146;11.740;2023-11-19T04:48:45;1.80;;;1.47;;
73682;SDS011;72538;48.146;11.740;2023-11-19T04:51:11;2.50;;;1.40;;
73682;SDS011;72538;48.146;11.740;2023-11-19T04:53:36;1.40;;;1.30;;
73682;SDS011;72538;48.146;11.740;2023-11-19T04:56:09;2.67;;;1.80;;
73682;SDS011;72538;48.146;11.740;2023-11-19T04:58:36;1.30;;;1.20;;
73682;SDS011;72538;48.146;11.740;2023-11-19T05:01:03;1.40;;;1.30;;
73682;SDS011;72538;48.146;11.740;2023-11-19T05:03:32;1.83;;;1.70;;
73682;SDS011;72538;48.146;11.740;2023-11-19T05:05:58;2.20;;;1.43;;
73682;SDS011;72538;48.146;11.740;2023-11-19T05:08:24;1.97;;;1.50;;
73682;SDS011;72538;48.146;11.740;2023-11-19T05:10:51;1.43;;;1.33;;
73682;SDS011;72538;48.146;11.740;2023-11-19T05:13:16;1.53;;;1.40;;
73682;SDS011;72538;48.146;11.740;2023-11-19T05:15:42;1.93;;;1.60;;
73682;SDS011;72538;48.146;11.740;2023-11-19T05:18:08;2.07;;;1.60;;
73682;SDS011;72538;48.146;11.740;2023-11-19T05:20:34;2.03;;;1.47;;
73682;SDS011;72538;48.146;11.740;2023-11-19T05:23:00;1.87;;;1.40;;
73682;SDS011;72538;48.146;11.740;2023-11-19T05:25:26;2.53;;;1.43;;
73682;SDS011;72538;48.146;11.740;2023-11-19T05:27:52;2.50;;;1.60;;
73682;SDS011;72538;48.146;11.740;2023-11-19T05:30:19;2.10;;;1.80;;
73682;SDS011;72538;48.146;11.740;2023-11-19T05:32:45;2.70;;;1.50;;
73682;SDS011;72538;48.146;11.740;2023-11-19T05:35:11;1.20;;;1.10;;
73682;SDS011;72538;48.146;11.740;2023-11-19T05:37:37;1.40;;;1.30;;
73682;SDS011;72538;48.146;11.740;2023-11-19T05:40:03;1.93;;;1.30;;
73682;SDS011;72538;48.146;11.740;2023-11-19T05:42:33;1.13;;;1.00;;
73682;SDS011;72538;48.146;11.740;2023-11-19T05:44:59;1.43;;;1.03;;
73682;SDS011;72538;48.146;11.740;2023-11-19T05:47:25;2.00;;;1.30;;
73682;SDS011;72538;48.146;11.740;2023-11-19T05:49:50;0.97;;;0.97;;
73682;SDS011;72538;48.146;11.740;2023-11-19T05:52:16;0.97;;;0.97;;
73682;SDS011;72538;48.146;11.740;2023-11-19T05:54:42;1.20;;;1.00;;
73682;SDS011;72538;48.146;11.740;2023-11-19T05:57:07;1.00;;;1.00;;
73682;SDS011;72538;48.146;11.740;2023-11-19T05:59:35;1.03;;;1.00;;
73682;SDS011;72538;48.146;11.740;2023-11-19T06:02:02;10.50;;;1.00;;
73682;SDS011;72538;48.146;11.740;2023-11-19T06:04:28;1.33;;;0.90;;
73682;SDS011;72538;48.146;11.740;2023-11-19T06:06:54;1.00;;;1.00;;
73682;SDS011;72538;48.146;11.740;2023-11-19T06:09:20;0.80;;;0.80;;
73682;SDS011;72538;48.146;11.740;2023-11-19T06:11:49;1.37;;;1.03;;
73682;SDS011;72538;48.146;11.740;2023-11-19T06:14:16;1.20;;;1.10;;
73682;SDS011;72538;48.146;11.740;2023-11-19T06:16:42;1.17;;;0.87;;
73682;SDS011;72538;48.146;11.740;2023-11-19T06:19:08;1.03;;;0.90;;
73682;SDS011;72538;48.146;11.740;2023-11-19T06:21:33;1.90;;;0.90;;
73682;SDS011;72538;48.146;11.740;2023-11-19T06:24:01;1.47;;;1.17;;
73682;SDS011;72538;48.146;11.740;2023-11-19T06:26:27;1.03;;;1.00;;
73682;SDS011;72538;48.146;11.740;2023-11-19T06:28:53;0.70;;;0.70;;
73682;SDS011;72538;48.146;11.740;2023-11-19T06:31:19;0.97;;;0.70;;
73682;SDS011;72538;48.146;11.740;2023-11-19T06:33:45;1.13;;;0.90;;
73682;SDS011;72538;48.146;11.740;2023-11-19T06:36:14;0.70;;;0.60;;
73682;SDS011;72538;48.146;11.740;2023-11-19T06:38:42;1.07;;;0.70;;
73682;SDS011;72538;48.146;11.740;2023-11-19T06:41:08;0.63;;;0.63;;
73682;SDS011;72538;48.146;11.740;2023-11-19T06:43:37;1.63;;;0.60;;
73682;SDS011;72538;48.146;11.740;2023-11-19T06:46:02;0.70;;;0.70;;
73682;SDS011;72538;48.146;11.740;2023-11-19T06:48:35;0.70;;;0.70;;
73682;SDS011;72538;48.146;11.740;2023-11-19T06:50:59;2.30;;;1.00;;
73682;SDS011;72538;48.146;11.740;2023-11-19T06:53:25;1.00;;;0.90;;
73682;SDS011;72538;48.146;11.740;2023-11-19T06:55:52;2.17;;;1.30;;
73682;SDS011;72538;48.146;11.740;2023-11-19T06:58:18;1.00;;;0.90;;
73682;SDS011;72538;48.146;11.740;2023-11-19T07:00:44;1.43;;;1.10;;
73682;SDS011;72538;48.146;11.740;2023-11-19T07:03:11;1.87;;;1.70;;
73682;SDS011;72538;48.146;11.740;2023-11-19T07:05:38;3.33;;;2.00;;
73682;SDS011;72538;48.146;11.740;2023-11-19T07:08:04;3.17;;;2.17;;
73682;SDS011;72538;48.146;11.740;2023-11-19T07:10:32;3.00;;;2.70;;
73682;SDS011;72538;48.146;11.740;2023-11-19T07:12:59;2.63;;;2.27;;
73682;SDS011;72538;48.146;11.740;2023-11-19T07:15:25;1.60;;;1.50;;
73682;SDS011;72538;48.146;11.740;2023-11-19T07:17:51;1.53;;;1.20;;
73682;SDS011;72538;48.146;11.740;2023-11-19T07:20:19;0.80;;;0.80;;
73682;SDS011;72538;48.146;11.740;2023-11-19T07:22:44;0.80;;;0.80;;
73682;SDS011;72538;48.146;11.740;2023-11-19T07:25:12;0.60;;;0.60;;
73682;SDS011;72538;48.146;11.740;2023-11-19T07:27:39;1.77;;;0.77;;
73682;SDS011;72538;48.146;11.740;2023-11-19T07:30:05;0.40;;;0.40;;
73682;SDS011;72538;48.146;11.740;2023-11-19T07:32:32;0.60;;;0.50;;
73682;SDS011;72538;48.146;11.740;2023-11-19T07:34:59;0.50;;;0.50;;
73682;SDS011;72538;48.146;11.740;2023-11-19T07:37:25;0.67;;;0.60;;
73682;SDS011;72538;48.146;11.740;2023-11-19T07:39:51;0.50;;;0.50;;
73682;SDS011;72538;48.146;11.740;2023-11-19T07:42:17;0.70;;;0.70;;
73682;SDS011;72538;48.146;11.740;2023-11-19T07:44:45;1.80;;;0.70;;
73682;SDS011;72538;48.146;11.740;2023-11-19T07:47:11;0.60;;;0.60;;
73682;SDS011;72538;48.146;11.740;2023-11-19T07:49:38;0.83;;;0.50;;
73682;SDS011;72538;48.146;11.740;2023-11-19T07:52:04;1.20;;;0.50;;
73682;SDS011;72538;48.146;11.740;2023-11-19T07:54:30;1.07;;;0.70;;
73682;SDS011;72538;48.146;11.740;2023-11-19T07:56:56;0.83;;;0.50;;
73682;SDS011;72538;48.146;11.740;2023-11-19T07:59:22;0.43;;;0.43;;
73682;SDS011;72538;48.146;11.740;2023-11-19T08:01:47;0.53;;;0.53;;
73682;SDS011;72538;48.146;11.740;2023-11-19T08:04:13;1.70;;;0.40;;
73682;SDS011;72538;48.146;11.740;2023-11-19T08:06:39;0.70;;;0.50;;
73682;SDS011;72538;48.146;11.740;2023-11-19T08:09:06;1.37;;;0.60;;
73682;SDS011;72538;48.146;11.740;2023-11-19T08:11:32;0.50;;;0.50;;
73682;SDS011;72538;48.146;11.740;2023-11-19T08:13:59;0.40;;;0.40;;
73682;SDS011;72538;48.146;11.740;2023-11-19T08:16:24;0.50;;;0.47;;
73682;SDS011;72538;48.146;11.740;2023-11-19T08:18:50;0.83;;;0.53;;
73682;SDS011;72538;48.146;11.740;2023-11-19T08:21:16;0.43;;;0.43;;
73682;SDS011;72538;48.146;11.740;2023-11-19T08:23:42;0.60;;;0.57;;
73682;SDS011;72538;48.146;11.740;2023-11-19T08:26:07;0.70;;;0.70;;
73682;SDS011;72538;48.146;11.740;2023-11-19T08:28:34;0.50;;;0.50;;
73682;SDS011;72538;48.146;11.740;2023-11-19T08:31:00;0.60;;;0.60;;
73682;SDS011;72538;48.146;11.740;2023-11-19T08:33:26;0.60;;;0.60;;
73682;SDS011;72538;48.146;11.740;2023-11-19T08:35:52;1.30;;;1.00;;
73682;SDS011;72538;48.146;11.740;2023-11-19T08:38:18;2.50;;;1.70;;
73682;SDS011;72538;48.146;11.740;2023-11-19T08:40:44;2.10;;;1.37;;
73682;SDS011;72538;48.146;11.740;2023-11-19T08:43:09;1.40;;;1.30;;
73682;SDS011;72538;48.146;11.740;2023-11-19T08:45:35;1.20;;;0.97;;
73682;SDS011;72538;48.146;11.740;2023-11-19T08:48:01;0.80;;;0.80;;
73682;SDS011;72538;48.146;11.740;2023-11-19T08:50:27;0.80;;;0.80;;
73682;SDS011;72538;48.146;11.740;2023-11-19T08:52:53;0.47;;;0.47;;
73682;SDS011;72538;48.146;11.740;2023-11-19T08:55:19;0.73;;;0.70;;
73682;SDS011;72538;48.146;11.740;2023-11-19T08:57:45;1.10;;;0.70;;
73682;SDS011;72538;48.146;11.740;2023-11-19T09:00:11;1.57;;;0.57;;
73682;SDS011;72538;48.146;11.740;2023-11-19T09:02:39;0.73;;;0.73;;
73682;SDS011;72538;48.146;11.740;2023-11-19T09:05:05;1.67;;;0.73;;
73682;SDS011;72538;48.146;11.740;2023-11-19T09:07:34;1.27;;;0.90;;
73682;SDS011;72538;48.146;11.740;2023-11-19T09:10:00;0.90;;;0.70;;
73682;SDS011;72538;48.146;11.740;2023-11-19T09:12:27;1.37;;;0.73;;
73682;SDS011;72538;48.146;11.740;2023-11-19T09:14:52;1.30;;;0.90;;
73682;SDS011;72538;48.146;11.740;2023-11-19T09:17:18;1.80;;;0.90;;
73682;SDS011;72538;48.146;11.740;2023-11-19T09:19:44;0.63;;;0.60;;
73682;SDS011;72538;48.146;11.740;2023-11-19T09:22:10;0.60;;;0.60;;
73682;SDS011;72538;48.146;11.740;2023-11-19T09:24:35;1.10;;;0.97;;
73682;SDS011;72538;48.146;11.740;2023-11-19T09:27:01;0.97;;;0.80;;
73682;SDS011;72538;48.146;11.740;2023-11-19T09:29:27;0.67;;;0.67;;
73682;SDS011;72538;48.146;11.740;2023-11-19T09:31:52;0.80;;;0.80;;
73682;SDS011;72538;48.146;11.740;2023-11-19T09:34:18;0.80;;;0.80;;
73682;SDS011;72538;48.146;11.740;2023-11-19T09:36:44;0.70;;;0.70;;
73682;SDS011;72538;48.146;11.740;2023-11-19T09:39:10;0.60;;;0.60;;
73682;SDS011;72538;48.146;11.740;2023-11-19T09:41:38;0.63;;;0.63;;
73682;SDS011;72538;48.146;11.740;2023-11-19T09:44:04;1.00;;;0.70;;
73682;SDS011;72538;48.146;11.740;2023-11-19T09:46:30;1.43;;;0.60;;
73682;SDS011;72538;48.146;11.740;2023-11-19T09:48:56;1.10;;;0.60;;
73682;SDS011;72538;48.146;11.740;2023-11-19T09:51:24;0.70;;;0.70;;
73682;SDS011;72538;48.146;11.740;2023-11-19T09:53:51;1.23;;;1.10;;
73682;SDS011;72538;48.146;11.740;2023-11-19T09:56:17;0.93;;;0.93;;
73682;SDS011;72538;48.146;11.740;2023-11-19T09:58:43;1.37;;;0.90;;
73682;SDS011;72538;48.146;11.740;2023-11-19T10:01:09;0.70;;;0.70;;
73682;SDS011;72538;48.146;11.740;2023-11-19T10:03:37;1.07;;;0.97;;
73682;SDS011;72538;48.146;11.740;2023-11-19T10:06:08;1.43;;;0.80;;
73682;SDS011;72538;48.146;11.740;2023-11-19T10:08:38;1.00;;;1.00;;
73682;SDS011;72538;48.146;11.740;2023-11-19T10:11:09;2.33;;;0.80;;
73682;SDS011;72538;48.146;11.740;2023-11-19T10:13:38;0.77;;;0.77;;
73682;SDS011;72538;48.146;11.740;2023-11-19T10:16:08;1.70;;;0.90;;
73682;SDS011;72538;48.146;11.740;2023-11-19T10:18:42;1.27;;;0.97;;
73682;SDS011;72538;48.146;11.740;2023-11-19T10:21:12;0.73;;;0.60;;
73682;SDS011;72538;48.146;11.740;2023-11-19T10:23:48;0.77;;;0.77;;
73682;SDS011;72538;48.146;11.740;2023-11-19T10:26:17;0.93;;;0.70;;
73682;SDS011;72538;48.146;11.740;2023-11-19T10:28:45;1.37;;;0.60;;
73682;SDS011;72538;48.146;11.740;2023-11-19T10:31:15;1.83;;;0.97;;
73682;SDS011;72538;48.146;11.740;2023-11-19T10:33:43;1.27;;;1.17;;
73682;SDS011;72538;48.146;11.740;2023-11-19T10:36:15;2.13;;;1.20;;
73682;SDS011;72538;48.146;11.740;2023-11-19T10:38:38;1.10;;;0.90;;
73682;SDS011;72538;48.146;11.740;2023-11-19T10:41:05;0.67;;;0.67;;
73682;SDS011;72538;48.146;11.740;2023-11-19T10:43:41;0.73;;;0.70;;
73682;SDS011;72538;48.146;11.740;2023-11-19T10:46:10;1.77;;;0.80;;
73682;SDS011;72538;48.146;11.740;2023-11-19T10:48:37;1.00;;;0.70;;
73682;SDS011;72538;48.146;11.740;2023-11-19T10:51:05;0.80;;;0.80;;
73682;SDS011;72538;48.146;11.740;2023-11-19T10:53:36;1.97;;;0.70;;
73682;SDS011;72538;48.146;11.740;2023-11-19T10:56:08;1.00;;;0.80;;
73682;SDS011;72538;48.146;11.740;2023-11-19T10:58:42;0.70;;;0.70;;
73682;SDS011;72538;48.146;11.740;2023-11-19T11:01:13;1.37;;;0.70;;
73682;SDS011;72538;48.146;11.740;2023-11-19T11:03:42;0.60;;;0.60;;
73682;SDS011;72538;48.146;11.740;2023-11-19T11:06:11;0.67;;;0.67;;
73682;SDS011;72538;48.146;11.740;2023-11-19T11:08:39;0.90;;;0.73;;
73682;SDS011;72538;48.146;11.740;2023-11-19T11:11:05;0.87;;;0.60;;
73682;SDS011;72538;48.146;11.740;2023-11-19T11:13:34;0.70;;;0.70;;
73682;SDS011;72538;48.146;11.740;2023-11-19T11:16:02;0.87;;;0.70;;
73682;SDS011;72538;48.146;11.740;2023-11-19T11:18:32;0.60;;;0.60;;
73682;SDS011;72538;48.146;11.740;2023-11-19T11:20:59;0.70;;;0.70;;
73682;SDS011;72538;48.146;11.740;2023-11-19T11:29:05;1.90;;;1.70;;
73682;SDS011;72538;48.146;11.740;2023-11-19T11:39:49;102.13;;;66.23;;
73682;SDS011;72538;48.146;11.740;2023-11-19T11:45:00;162.40;;;91.87;;
73682;SDS011;72538;48.146;11.740;2023-11-19T11:50:18;204.20;;;110.93;;
73682;SDS011;72538;48.146;11.740;2023-11-19T11:55:35;305.47;;;186.93;;
73682;SDS011;72538;48.146;11.740;2023-11-19T11:58:05;63.70;;;44.53;;
73682;SDS011;72538;48.146;11.740;2023-11-19T12:00:32;25.47;;;20.30;;
73682;SDS011;72538;48.146;11.740;2023-11-19T12:03:00;17.23;;;15.47;;
73682;SDS011;72538;48.146;11.740;2023-11-19T12:05:26;6.00;;;5.60;;
73682;SDS011;72538;48.146;11.740;2023-11-19T12:07:56;1.73;;;1.63;;
73682;SDS011;72538;48.146;11.740;2023-11-19T12:10:28;1.17;;;1.17;;
73682;SDS011;72538;48.146;11.740;2023-11-19T12:12:58;0.93;;;0.67;;
73682;SDS011;72538;48.146;11.740;2023-11-19T12:15:25;0.70;;;0.70;;
73682;SDS011;72538;48.146;11.740;2023-11-19T12:17:53;0.57;;;0.50;;
73682;SDS011;72538;48.146;11.740;2023-11-19T12:20:20;0.40;;;0.40;;
73682;SDS011;72538;48.146;11.740;2023-11-19T12:22:48;0.70;;;0.70;;
73682;SDS011;72538;48.146;11.740;2023-11-19T12:25:15;0.82;;;0.60;;
73682;SDS011;72538;48.146;11.740;2023-11-19T12:27:49;0.95;;;0.72;;
73682;SDS011;72538;48.146;11.740;2023-11-19T12:30:26;0.68;;;0.62;;
73682;SDS011;72538;48.146;11.740;2023-11-19T12:32:50;1.07;;;0.90;;
73682;SDS011;72538;48.146;11.740;2023-11-19T12:35:16;0.70;;;0.70;;
73682;SDS011;72538;48.146;11.740;2023-11-19T12:37:42;0.70;;;0.70;;
73682;SDS011;72538;48.146;11.740;2023-11-19T12:40:13;0.60;;;0.60;;
73682;SDS011;72538;48.146;11.740;2023-11-19T12:42:41;6.53;;;0.82;;
73682;SDS011;72538;48.146;11.740;2023-11-19T12:45:07;0.50;;;0.50;;
73682;SDS011;72538;48.146;11.740;2023-11-19T12:47:35;1.72;;;0.60;;
73682;SDS011;72538;48.146;11.740;2023-11-19T12:50:02;0.93;;;0.85;;
73682;SDS011;72538;48.146;11.740;2023-11-19T12:52:29;1.07;;;0.60;;
73682;SDS011;72538;48.146;11.740;2023-11-19T12:54:55;0.50;;;0.50;;
73682;SDS011;72538;48.146;11.740;2023-11-19T12:57:35;1.10;;;1.00;;
73682;SDS011;72538;48.146;11.740;2023-11-19T13:00:07;1.10;;;1.00;;
73682;SDS011;72538;48.146;11.740;2023-11-19T13:02:45;0.80;;;0.63;;
73682;SDS011;72538;48.146;11.740;2023-11-19T13:08:09;6.33;;;4.93;;
73682;SDS011;72538;48.146;11.740;2023-11-19T13:10:51;24.53;;;15.63;;
73682;SDS011;72538;48.146;11.740;2023-11-19T13:13:18;24.23;;;17.50;;
73682;SDS011;72538;48.146;11.740;2023-11-19T13:15:45;12.83;;;11.53;;
73682;SDS011;72538;48.146;11.740;2023-11-19T13:18:11;7.33;;;5.93;;
73682;SDS011;72538;48.146;11.740;2023-11-19T13:20:37;63.23;;;39.93;;
73682;SDS011;72538;48.146;11.740;2023-11-19T13:23:04;51.77;;;35.93;;
73682;SDS011;72538;48.146;11.740;2023-11-19T13:25:32;45.10;;;36.70;;
73682;SDS011;72538;48.146;11.740;2023-11-19T13:27:58;43.63;;;35.90;;
73682;SDS011;72538;48.146;11.740;2023-11-19T13:30:24;62.23;;;43.13;;
73682;SDS011;72538;48.146;11.740;2023-11-19T13:32:51;112.53;;;83.47;;
73682;SDS011;72538;48.146;11.740;2023-11-19T13:35:18;37.70;;;30.77;;
73682;SDS011;72538;48.146;11.740;2023-11-19T13:37:44;15.37;;;13.97;;
73682;SDS011;72538;48.146;11.740;2023-11-19T13:40:11;3.37;;;3.17;;
73682;SDS011;72538;48.146;11.740;2023-11-19T13:42:39;1.80;;;1.70;;
73682;SDS011;72538;48.146;11.740;2023-11-19T13:45:13;8.10;;;7.00;;
73682;SDS011;72538;48.146;11.740;2023-11-19T13:47:38;3.60;;;3.10;;
73682;SDS011;72538;48.146;11.740;2023-11-19T13:50:07;2.67;;;1.77;;
73682;SDS011;72538;48.146;11.740;2023-11-19T13:52:37;2.40;;;2.20;;
73682;SDS011;72538;48.146;11.740;2023-11-19T13:55:09;3.33;;;3.03;;
73682;SDS011;72538;48.146;11.740;2023-11-19T13:57:34;1.70;;;1.57;;
73682;SDS011;72538;48.146;11.740;2023-11-19T14:00:01;1.03;;;1.00;;
73682;SDS011;72538;48.146;11.740;2023-11-19T14:02:30;2.67;;;1.70;;
73682;SDS011;72538;48.146;11.740;2023-11-19T14:04:56;0.70;;;0.70;;
73682;SDS011;72538;48.146;11.740;2023-11-19T14:07:21;1.07;;;0.77;;
73682;SDS011;72538;48.146;11.740;2023-11-19T14:09:47;1.00;;;0.90;;
73682;SDS011;72538;48.146;11.740;2023-11-19T14:12:13;1.53;;;1.23;;
73682;SDS011;72538;48.146;11.740;2023-11-19T14:14:39;0.80;;;0.80;;
73682;SDS011;72538;48.146;11.740;2023-11-19T14:17:05;1.17;;;0.80;;
73682;SDS011;72538;48.146;11.740;2023-11-19T14:19:30;0.97;;;0.97;;
73682;SDS011;72538;48.146;11.740;2023-11-19T14:21:56;1.07;;;0.87;;
73682;SDS011;72538;48.146;11.740;2023-11-19T14:24:23;2.13;;;0.77;;
73682;SDS011;72538;48.146;11.740;2023-11-19T14:26:49;1.57;;;0.70;;
73682;SDS011;72538;48.146;11.740;2023-11-19T14:29:17;1.23;;;0.80;;
73682;SDS011;72538;48.146;11.740;2023-11-19T14:31:43;1.30;;;1.13;;
73682;SDS011;72538;48.146;11.740;2023-11-19T14:34:08;65.63;;;38.10;;
73682;SDS011;72538;48.146;11.740;2023-11-19T14:36:34;20.17;;;11.87;;
73682;SDS011;72538;48.146;11.740;2023-11-19T14:39:00;81.17;;;46.87;;
73682;SDS011;72538;48.146;11.740;2023-11-19T14:41:26;117.63;;;66.10;;
73682;SDS011;72538;48.146;11.740;2023-11-19T14:43:52;228.63;;;125.50;;
73682;SDS011;72538;48.146;11.740;2023-11-19T14:46:18;207.57;;;113.00;;
73682;SDS011;72538;48.146;11.740;2023-11-19T14:48:44;85.50;;;45.87;;
73682;SDS011;72538;48.146;11.740;2023-11-19T14:51:10;13.57;;;9.10;;
73682;SDS011;72538;48.146;11.740;2023-11-19T14:53:35;86.00;;;57.90;;
73682;SDS011;72538;48.146;11.740;2023-11-19T14:56:01;91.63;;;60.20;;